createdAt,value
2018-08-16T00:01:20.225Z,5.03
2018-08-16T00:03:48.439Z,5.10
2018-08-16T00:06:16.640Z,4.20
2018-08-16T00:08:44.821Z,4.77
2018-08-16T00:11:13.060Z,4.73
2018-08-16T00:13:41.212Z,5.43
2018-08-16T00:16:09.396Z,5.37
2018-08-16T00:18:37.331Z,5.73
2018-08-16T00:21:05.786Z,4.63
2018-08-16T00:23:33.748Z,5.23
2018-08-16T00:26:02.007Z,5.17
2018-08-16T00:28:29.955Z,5.30
2018-08-16T00:30:57.911Z,5.03
2018-08-16T00:33:25.868Z,5.30
2018-08-16T00:35:53.913Z,5.50
2018-08-16T00:38:21.852Z,5.10
2018-08-16T00:40:49.835Z,4.90
2018-08-16T00:43:18.037Z,5.60
2018-08-16T00:45:46.255Z,4.93
2018-08-16T00:48:14.464Z,5.43
2018-08-16T00:50:42.620Z,5.20
2018-08-16T00:53:10.797Z,5.17
2018-08-16T00:55:38.728Z,5.07
2018-08-16T00:58:06.940Z,5.13
2018-08-16T01:00:35.144Z,4.90
2018-08-16T01:03:03.348Z,4.97
2018-08-16T01:05:31.560Z,5.50
2018-08-16T01:07:59.769Z,5.40
2018-08-16T01:10:27.695Z,5.00
2018-08-16T01:12:55.617Z,5.90
2018-08-16T01:15:23.766Z,5.23
2018-08-16T01:17:51.965Z,5.20
2018-08-16T01:20:20.187Z,4.97
2018-08-16T01:22:48.303Z,5.70
2018-08-16T01:25:16.429Z,5.30
2018-08-16T01:27:44.553Z,5.40
2018-08-16T01:30:12.701Z,5.30
2018-08-16T01:32:40.854Z,5.43
2018-08-16T01:35:09.789Z,5.47
2018-08-16T01:37:38.064Z,4.80
2018-08-16T01:40:07.089Z,5.13
2018-08-16T01:42:35.664Z,5.00
2018-08-16T01:45:03.908Z,4.60
2018-08-16T01:47:32.045Z,5.67
2018-08-16T01:50:00.160Z,5.13
2018-08-16T01:52:28.355Z,5.10
2018-08-16T01:54:56.568Z,5.33
2018-08-16T01:57:24.703Z,5.13
2018-08-16T01:59:52.828Z,5.43
2018-08-16T02:02:20.985Z,5.90
2018-08-16T02:04:49.220Z,5.53
2018-08-16T02:07:17.364Z,5.37
2018-08-16T02:09:46.938Z,6.37
2018-08-16T02:12:16.594Z,5.80
2018-08-16T02:14:44.869Z,5.40
2018-08-16T02:17:13.067Z,5.40
2018-08-16T02:19:41.224Z,5.50
2018-08-16T02:22:09.357Z,5.50
2018-08-16T02:24:37.556Z,5.37
2018-08-16T02:27:05.764Z,5.20
2018-08-16T02:29:33.928Z,5.50
2018-08-16T02:32:02.098Z,5.80
2018-08-16T02:34:30.252Z,6.37
2018-08-16T02:36:58.384Z,5.70
2018-08-16T02:39:26.556Z,5.23
2018-08-16T02:41:54.468Z,5.70
2018-08-16T02:44:22.627Z,5.80
2018-08-16T02:46:50.792Z,5.47
2018-08-16T02:49:18.965Z,5.73
2018-08-16T02:51:47.104Z,5.70
2018-08-16T02:54:15.296Z,5.33
2018-08-16T02:56:43.446Z,5.27
2018-08-16T02:59:11.585Z,5.57
2018-08-16T03:01:39.748Z,5.73
2018-08-16T03:04:07.920Z,5.47
2018-08-16T03:06:36.076Z,5.80
2018-08-16T03:09:06.929Z,6.10
2018-08-16T03:11:35.074Z,5.23
2018-08-16T03:14:03.296Z,5.70
2018-08-16T03:16:31.421Z,6.10
2018-08-16T03:18:59.605Z,6.30
2018-08-16T03:21:27.745Z,6.00
2018-08-16T03:23:55.885Z,5.83
2018-08-16T03:26:24.024Z,5.77
2018-08-16T03:28:52.173Z,5.63
2018-08-16T03:31:20.296Z,6.50
2018-08-16T03:33:48.474Z,5.80
2018-08-16T03:36:16.366Z,6.90
2018-08-16T03:38:44.531Z,5.90
2018-08-16T03:41:12.425Z,6.50
2018-08-16T03:43:40.626Z,6.17
2018-08-16T03:46:08.792Z,5.90
2018-08-16T03:48:36.945Z,5.90
2018-08-16T03:51:05.652Z,5.17
2018-08-16T03:53:33.563Z,5.93
2018-08-16T03:56:01.696Z,5.67
2018-08-16T03:58:29.910Z,6.17
2018-08-16T04:00:58.096Z,5.27
2018-08-16T04:03:26.293Z,5.37
2018-08-16T04:05:54.459Z,6.40
2018-08-16T04:08:22.616Z,6.40
2018-08-16T04:10:50.776Z,5.90
2018-08-16T04:13:18.917Z,6.17
2018-08-16T04:15:47.056Z,5.73
2018-08-16T04:18:15.181Z,5.53
2018-08-16T04:20:43.338Z,6.40
2018-08-16T04:23:11.468Z,5.43
2018-08-16T04:25:39.665Z,6.57
2018-08-16T04:28:07.567Z,5.73
2018-08-16T04:30:35.711Z,5.53
2018-08-16T04:33:03.876Z,5.20
2018-08-16T04:35:32.128Z,5.47
2018-08-16T04:38:00.141Z,5.97
2018-08-16T04:40:28.523Z,6.13
2018-08-16T04:42:56.655Z,5.77
2018-08-16T04:45:24.793Z,6.10
2018-08-16T04:47:52.917Z,5.80
2018-08-16T04:50:21.110Z,5.40
2018-08-16T04:52:49.454Z,6.20
2018-08-16T04:55:17.832Z,6.10
2018-08-16T04:57:45.752Z,5.97
2018-08-16T05:00:13.893Z,5.50
2018-08-16T05:02:42.024Z,6.00
2018-08-16T05:05:10.153Z,5.93
2018-08-16T05:07:38.369Z,5.40
2018-08-16T05:10:07.960Z,6.00
2018-08-16T05:12:35.854Z,5.10
2018-08-16T05:15:06.205Z,6.47
2018-08-16T05:17:34.314Z,7.10
2018-08-16T05:20:02.440Z,7.13
2018-08-16T05:22:30.351Z,6.63
2018-08-16T05:24:58.501Z,6.40
2018-08-16T05:27:26.623Z,6.63
2018-08-16T05:29:54.744Z,6.13
2018-08-16T05:32:22.895Z,6.60
2018-08-16T05:34:51.030Z,6.73
2018-08-16T05:37:19.193Z,7.43
2018-08-16T05:39:47.091Z,6.83
2018-08-16T05:42:15.289Z,8.13
2018-08-16T05:44:43.407Z,6.93
2018-08-16T05:47:11.558Z,6.60
2018-08-16T05:49:39.695Z,6.70
2018-08-16T05:52:07.891Z,5.87
2018-08-16T05:54:36.013Z,5.83
2018-08-16T05:57:04.160Z,6.37
2018-08-16T05:59:32.332Z,5.60
2018-08-16T06:02:00.405Z,6.17
2018-08-16T06:04:28.517Z,5.17
2018-08-16T06:06:56.657Z,5.10
2018-08-16T06:09:24.840Z,4.93
2018-08-16T06:11:52.986Z,4.70
2018-08-16T06:14:21.508Z,5.37
2018-08-16T06:16:49.656Z,4.37
2018-08-16T06:19:17.796Z,5.10
2018-08-16T06:21:45.967Z,4.30
2018-08-16T06:24:13.878Z,4.80
2018-08-16T06:26:42.589Z,4.10
2018-08-16T06:29:10.769Z,5.50
2018-08-16T06:31:38.970Z,4.63
2018-08-16T06:34:07.093Z,4.50
2018-08-16T06:36:35.226Z,3.83
2018-08-16T06:39:03.233Z,3.77
2018-08-16T06:41:31.096Z,4.57
2018-08-16T06:43:59.233Z,4.37
2018-08-16T06:46:27.131Z,3.93
2018-08-16T06:48:55.062Z,4.97
2018-08-16T06:51:23.181Z,3.80
2018-08-16T06:53:51.329Z,3.87
2018-08-16T06:56:19.434Z,4.23
2018-08-16T06:58:47.580Z,3.50
2018-08-16T07:01:15.486Z,3.53
2018-08-16T07:03:43.638Z,4.80
2018-08-16T07:06:11.770Z,3.77
2018-08-16T07:08:39.910Z,3.67
2018-08-16T07:11:07.850Z,3.77
2018-08-16T07:13:35.757Z,4.00
2018-08-16T07:16:03.917Z,3.70
2018-08-16T07:18:32.052Z,3.63
2018-08-16T07:21:00.189Z,3.97
2018-08-16T07:23:28.296Z,3.90
2018-08-16T07:25:56.693Z,3.87
2018-08-16T07:28:24.837Z,3.60
2018-08-16T07:30:53.833Z,3.90
2018-08-16T07:33:21.972Z,3.47
2018-08-16T07:35:50.090Z,3.73
2018-08-16T07:38:18.225Z,3.80
2018-08-16T07:40:46.368Z,3.63
2018-08-16T07:43:14.582Z,4.03
2018-08-16T07:45:42.519Z,3.80
2018-08-16T07:48:13.975Z,3.60
2018-08-16T07:50:42.097Z,3.80
2018-08-16T07:53:13.497Z,3.90
2018-08-16T07:55:41.399Z,4.00
2018-08-16T07:58:09.542Z,3.73
2018-08-16T08:00:37.661Z,3.63
2018-08-16T08:03:05.790Z,4.00
2018-08-16T08:05:33.996Z,3.90
2018-08-16T08:08:02.225Z,4.70
2018-08-16T08:10:30.353Z,3.70
2018-08-16T08:12:58.477Z,3.40
2018-08-16T08:15:26.638Z,4.07
2018-08-16T08:17:54.756Z,4.13
2018-08-16T08:20:22.888Z,4.00
2018-08-16T08:22:51.052Z,4.27
2018-08-16T08:25:19.039Z,4.70
2018-08-16T08:27:47.146Z,3.93
2018-08-16T08:30:16.119Z,4.40
2018-08-16T08:32:44.271Z,3.90
2018-08-16T08:35:13.955Z,3.53
2018-08-16T08:37:54.174Z,4.33
2018-08-16T08:40:22.356Z,3.67
2018-08-16T08:42:50.476Z,3.83
2018-08-16T08:45:18.706Z,3.57
2018-08-16T08:47:47.692Z,3.67
2018-08-16T08:50:15.876Z,3.13
2018-08-16T08:52:43.995Z,3.40
2018-08-16T08:55:23.453Z,3.40
2018-08-16T08:58:57.302Z,2.77
2018-08-16T09:01:26.081Z,3.10
2018-08-16T09:03:54.338Z,3.50
2018-08-16T09:06:22.478Z,3.27
2018-08-16T09:08:50.625Z,3.40
2018-08-16T09:11:24.156Z,3.10
2018-08-16T09:14:05.186Z,3.37
2018-08-16T09:16:35.538Z,3.47
2018-08-16T09:19:04.230Z,3.07
2018-08-16T09:21:32.691Z,2.30
2018-08-16T09:24:00.685Z,2.10
2018-08-16T09:26:34.184Z,2.33
2018-08-16T09:29:02.363Z,2.50
2018-08-16T09:31:42.032Z,2.90
2018-08-16T09:34:21.081Z,2.40
2018-08-16T09:36:49.352Z,2.43
2018-08-16T09:39:17.546Z,2.50
2018-08-16T09:41:45.644Z,2.97
2018-08-16T09:44:14.152Z,2.70
2018-08-16T09:46:59.422Z,2.07
2018-08-16T09:49:28.708Z,2.33
2018-08-16T09:51:56.878Z,1.90
2018-08-16T09:54:24.800Z,2.07
2018-08-16T09:56:53.518Z,2.30
2018-08-16T09:59:21.717Z,2.43
2018-08-16T10:01:49.645Z,2.03
2018-08-16T10:04:17.817Z,2.37
2018-08-16T10:06:46.303Z,2.10
2018-08-16T10:09:19.268Z,2.13
2018-08-16T10:11:47.857Z,1.97
2018-08-16T10:14:16.332Z,2.00
2018-08-16T10:16:44.265Z,2.00
2018-08-16T10:19:12.219Z,2.20
2018-08-16T10:21:40.147Z,2.37
2018-08-16T10:24:08.378Z,2.10
2018-08-16T10:26:36.597Z,2.20
2018-08-16T10:29:05.355Z,2.10
2018-08-16T10:31:33.558Z,2.10
2018-08-16T10:34:01.721Z,1.90
2018-08-16T10:36:29.892Z,2.03
2018-08-16T10:38:58.061Z,2.20
2018-08-16T10:41:26.320Z,2.20
2018-08-16T10:43:54.748Z,1.97
2018-08-16T10:46:22.949Z,1.90
2018-08-16T10:48:51.114Z,2.10
2018-08-16T10:51:19.338Z,2.07
2018-08-16T10:53:47.505Z,1.90
2018-08-16T10:56:15.689Z,2.20
2018-08-16T10:58:43.910Z,2.23
2018-08-16T11:01:12.087Z,2.20
2018-08-16T11:03:40.284Z,2.13
2018-08-16T11:06:08.473Z,2.10
2018-08-16T11:08:36.428Z,2.67
2018-08-16T11:11:04.360Z,2.17
2018-08-16T11:13:32.574Z,2.47
2018-08-16T11:16:00.541Z,1.97
2018-08-16T11:18:28.992Z,2.10
2018-08-16T11:20:57.172Z,2.50
2018-08-16T11:23:25.365Z,2.10
2018-08-16T11:25:53.533Z,2.60
2018-08-16T11:28:22.668Z,2.33
2018-08-16T11:30:50.860Z,2.30
2018-08-16T11:33:19.091Z,1.80
2018-08-16T11:35:47.253Z,2.50
2018-08-16T11:38:15.442Z,2.03
2018-08-16T11:40:43.724Z,1.80
2018-08-16T11:43:11.833Z,2.30
2018-08-16T11:45:40.030Z,2.40
2018-08-16T11:48:08.296Z,2.13
2018-08-16T11:50:36.595Z,2.27
2018-08-16T11:53:04.790Z,2.20
2018-08-16T11:55:33.004Z,2.70
2018-08-16T11:58:01.181Z,2.90
2018-08-16T12:00:29.377Z,2.00
2018-08-16T12:02:57.566Z,2.30
2018-08-16T12:05:25.765Z,2.30
2018-08-16T12:07:53.951Z,2.20
2018-08-16T12:10:22.397Z,2.10
2018-08-16T12:12:50.607Z,2.40
2018-08-16T12:15:18.826Z,2.57
2018-08-16T12:17:47.007Z,1.87
2018-08-16T12:20:15.177Z,2.10
2018-08-16T12:22:43.348Z,2.20
2018-08-16T12:25:11.506Z,2.00
2018-08-16T12:27:39.713Z,2.33
2018-08-16T12:30:08.828Z,2.17
2018-08-16T12:32:37.230Z,2.27
2018-08-16T12:35:05.962Z,2.23
2018-08-16T12:37:34.186Z,2.20
2018-08-16T12:40:02.373Z,2.33
2018-08-16T12:42:30.299Z,2.53
2018-08-16T12:44:58.212Z,2.50
2018-08-16T12:47:26.203Z,1.90
2018-08-16T12:49:54.069Z,2.10
2018-08-16T12:52:22.230Z,2.43
2018-08-16T12:54:50.637Z,2.20
2018-08-16T12:57:18.571Z,1.83
2018-08-16T12:59:46.726Z,2.20
2018-08-16T13:02:15.772Z,2.43
2018-08-16T13:04:43.964Z,2.10
2018-08-16T13:07:12.296Z,2.33
2018-08-16T13:09:40.216Z,1.90
2018-08-16T13:12:08.160Z,2.27
2018-08-16T13:14:36.342Z,1.83
2018-08-16T13:17:04.614Z,2.20
2018-08-16T13:19:32.560Z,2.03
2018-08-16T13:22:00.483Z,2.20
2018-08-16T13:24:28.649Z,2.07
2018-08-16T13:26:56.810Z,2.60
2018-08-16T13:29:24.965Z,2.37
2018-08-16T13:31:53.141Z,2.20
2018-08-16T13:34:21.822Z,1.83
2018-08-16T13:36:50.000Z,1.97
2018-08-16T13:39:18.173Z,2.03
2018-08-16T13:41:46.339Z,2.10
2018-08-16T13:44:14.492Z,2.10
2018-08-16T13:46:42.670Z,2.53
2018-08-16T13:49:10.857Z,2.10
2018-08-16T13:51:41.294Z,2.33
2018-08-16T13:54:09.484Z,2.43
2018-08-16T13:56:37.701Z,2.80
2018-08-16T13:59:06.205Z,2.53
2018-08-16T14:01:34.401Z,2.30
2018-08-16T14:04:02.576Z,2.70
2018-08-16T14:06:30.728Z,2.37
2018-08-16T14:08:58.899Z,2.57
2018-08-16T14:11:27.077Z,2.50
2018-08-16T14:13:55.253Z,2.50
2018-08-16T14:16:23.421Z,2.53
2018-08-16T14:18:51.723Z,2.33
2018-08-16T14:21:19.894Z,2.40
2018-08-16T14:23:48.053Z,2.60
2018-08-16T14:26:16.257Z,2.50
2018-08-16T14:28:44.414Z,2.40
2018-08-16T14:31:12.578Z,2.40
2018-08-16T14:33:40.733Z,2.47
2018-08-16T14:36:08.649Z,2.30
2018-08-16T14:38:36.817Z,2.73
2018-08-16T14:41:04.992Z,2.60
2018-08-16T14:43:33.141Z,2.20
2018-08-16T14:46:01.418Z,2.60
2018-08-16T14:48:29.585Z,1.97
2018-08-16T14:50:57.763Z,2.80
2018-08-16T14:53:25.897Z,2.40
2018-08-16T14:55:54.045Z,2.50
2018-08-16T14:58:22.199Z,2.40
2018-08-16T15:00:50.398Z,2.60
2018-08-16T15:03:18.441Z,2.30
2018-08-16T15:05:46.603Z,2.37
2018-08-16T15:08:14.540Z,2.17
2018-08-16T15:10:42.709Z,2.40
2018-08-16T15:13:10.880Z,2.30
2018-08-16T15:15:39.050Z,2.00
2018-08-16T15:18:07.312Z,2.27
2018-08-16T15:20:35.462Z,1.97
2018-08-16T15:23:03.812Z,2.50
2018-08-16T15:25:31.962Z,2.50
2018-08-16T15:28:00.134Z,2.73
2018-08-16T15:30:28.297Z,2.23
2018-08-16T15:32:56.467Z,2.50
2018-08-16T15:35:24.641Z,2.10
2018-08-16T15:37:52.814Z,2.30
2018-08-16T15:40:20.986Z,2.00
2018-08-16T15:42:49.163Z,2.10
2018-08-16T15:45:17.092Z,2.23
2018-08-16T15:47:45.266Z,2.40
2018-08-16T15:50:13.417Z,2.10
2018-08-16T15:52:41.580Z,2.20
2018-08-16T15:55:09.745Z,1.93
2018-08-16T15:57:37.901Z,2.40
2018-08-16T16:00:09.824Z,2.23
2018-08-16T16:02:38.120Z,2.27
2018-08-16T16:05:06.309Z,2.23
2018-08-16T16:07:34.491Z,2.07
2018-08-16T16:10:02.670Z,2.60
2018-08-16T16:12:30.860Z,2.43
2018-08-16T16:14:59.023Z,2.53
2018-08-16T16:17:27.367Z,2.13
2018-08-16T16:19:55.389Z,2.00
2018-08-16T16:22:23.548Z,2.10
2018-08-16T16:24:51.725Z,2.07
2018-08-16T16:27:19.926Z,2.10
2018-08-16T16:29:48.081Z,2.80
2018-08-16T16:32:16.241Z,2.30
2018-08-16T16:34:44.388Z,2.10
2018-08-16T16:37:12.557Z,2.40
2018-08-16T16:39:40.725Z,1.90
2018-08-16T16:42:08.655Z,1.80
2018-08-16T16:44:36.847Z,2.13
2018-08-16T16:47:05.345Z,2.17
2018-08-16T16:49:33.518Z,2.17
2018-08-16T16:52:01.710Z,2.00
2018-08-16T16:54:29.864Z,1.90
2018-08-16T16:56:58.074Z,2.03
2018-08-16T16:59:26.279Z,2.33
2018-08-16T17:01:54.465Z,2.07
2018-08-16T17:04:22.624Z,2.13
2018-08-16T17:06:50.801Z,2.13
2018-08-16T17:09:18.974Z,1.80
2018-08-16T17:11:46.904Z,2.40
2018-08-16T17:14:15.069Z,2.20
2018-08-16T17:16:43.217Z,2.50
2018-08-16T17:19:11.393Z,1.90
2018-08-16T17:21:39.548Z,2.10
2018-08-16T17:24:07.738Z,2.50
2018-08-16T17:26:35.934Z,2.20
2018-08-16T17:29:04.428Z,2.10
2018-08-16T17:31:32.633Z,2.00
2018-08-16T17:34:00.862Z,2.27
2018-08-16T17:36:29.029Z,1.93
2018-08-16T17:38:57.178Z,2.10
2018-08-16T17:41:25.320Z,2.50
2018-08-16T17:43:53.492Z,2.27
2018-08-16T17:46:21.685Z,1.93
2018-08-16T17:48:54.232Z,2.37
2018-08-16T17:51:22.458Z,2.30
2018-08-16T17:53:50.632Z,2.63
2018-08-16T17:56:18.552Z,2.53
2018-08-16T17:58:46.706Z,2.87
2018-08-16T18:01:14.609Z,3.40
2018-08-16T18:03:43.184Z,3.20
2018-08-16T18:06:11.362Z,3.20
2018-08-16T18:08:39.516Z,2.73
2018-08-16T18:11:07.678Z,2.40
2018-08-16T18:13:35.834Z,2.50
2018-08-16T18:16:04.009Z,2.83
2018-08-16T18:18:32.314Z,3.20
2018-08-16T18:21:00.207Z,2.07
2018-08-16T18:23:28.401Z,2.87
2018-08-16T18:25:56.603Z,2.77
2018-08-16T18:28:24.787Z,3.33
2018-08-16T18:30:52.967Z,2.80
2018-08-16T18:33:21.742Z,2.60
2018-08-16T18:35:49.913Z,2.53
2018-08-16T18:38:18.918Z,2.33
2018-08-16T18:40:46.852Z,2.70
2018-08-16T18:43:15.037Z,2.90
2018-08-16T18:45:43.221Z,2.83
2018-08-16T18:48:11.215Z,3.00
2018-08-16T18:50:39.191Z,2.70
2018-08-16T18:53:07.392Z,2.73
2018-08-16T18:55:35.506Z,3.00
2018-08-16T18:58:03.723Z,3.20
2018-08-16T19:00:31.645Z,2.73
2018-08-16T19:02:59.601Z,2.83
2018-08-16T19:05:27.606Z,2.97
2018-08-16T19:07:55.757Z,2.90
2018-08-16T19:10:23.940Z,2.90
2018-08-16T19:12:52.105Z,3.13
2018-08-16T19:15:20.337Z,3.07
2018-08-16T19:17:48.517Z,2.90
2018-08-16T19:20:16.748Z,2.80
2018-08-16T19:22:44.978Z,3.00
2018-08-16T19:25:13.152Z,3.00
2018-08-16T19:27:41.100Z,2.37
2018-08-16T19:30:09.076Z,2.50
2018-08-16T19:32:37.042Z,2.57
2018-08-16T19:35:05.430Z,3.00
2018-08-16T19:37:33.658Z,2.80
2018-08-16T19:40:01.847Z,2.50
2018-08-16T19:42:30.030Z,2.83
2018-08-16T19:44:58.245Z,2.80
2018-08-16T19:47:26.433Z,2.90
2018-08-16T19:49:54.702Z,3.30
2018-08-16T19:52:22.879Z,3.00
2018-08-16T19:54:51.113Z,3.20
2018-08-16T19:57:19.043Z,3.30
2018-08-16T19:59:52.550Z,3.03
2018-08-16T20:02:20.747Z,2.97
2018-08-16T20:04:48.949Z,3.03
2018-08-16T20:07:17.124Z,3.37
2018-08-16T20:09:45.113Z,3.10
2018-08-16T20:12:13.016Z,3.03
2018-08-16T20:14:41.203Z,2.90
2018-08-16T20:17:09.128Z,3.37
2018-08-16T20:19:37.517Z,3.70
2018-08-16T20:22:09.753Z,3.10
2018-08-16T20:24:37.961Z,3.53
2018-08-16T20:27:06.394Z,3.13
2018-08-16T20:29:34.600Z,3.03
2018-08-16T20:32:02.805Z,3.40
2018-08-16T20:34:30.962Z,3.23
2018-08-16T20:36:58.948Z,2.63
2018-08-16T20:39:27.167Z,3.30
2018-08-16T20:41:55.417Z,3.33
2018-08-16T20:44:23.775Z,3.57
2018-08-16T20:46:51.947Z,3.13
2018-08-16T20:49:20.180Z,3.43
2018-08-16T20:51:48.818Z,3.00
2018-08-16T20:54:17.013Z,3.30
2018-08-16T20:56:45.184Z,3.40
2018-08-16T20:59:13.369Z,3.23
2018-08-16T21:01:41.594Z,3.33
2018-08-16T21:04:09.791Z,3.50
2018-08-16T21:06:37.936Z,3.20
2018-08-16T21:09:07.432Z,3.00
2018-08-16T21:11:35.773Z,3.57
2018-08-16T21:14:04.098Z,3.20
2018-08-16T21:16:32.269Z,3.47
2018-08-16T21:19:00.218Z,3.70
2018-08-16T21:21:28.474Z,3.60
2018-08-16T21:23:56.642Z,3.17
2018-08-16T21:26:24.848Z,3.67
2018-08-16T21:28:52.792Z,3.07
2018-08-16T21:31:21.148Z,3.43
2018-08-16T21:33:49.322Z,3.60
2018-08-16T21:36:17.562Z,3.67
2018-08-16T21:38:45.730Z,3.30
2018-08-16T21:41:13.936Z,3.50
2018-08-16T21:43:42.153Z,3.17
2018-08-16T21:46:10.374Z,3.70
2018-08-16T21:48:38.619Z,3.77
2018-08-16T21:51:06.839Z,4.13
2018-08-16T21:53:35.213Z,4.00
2018-08-16T21:56:03.191Z,3.67
2018-08-16T21:58:31.149Z,4.30
2018-08-16T22:01:06.447Z,3.60
2018-08-16T22:03:34.432Z,3.40
2018-08-16T22:06:10.550Z,3.47
2018-08-16T22:08:39.257Z,3.70
2018-08-16T22:11:07.377Z,3.53
2018-08-16T22:13:35.371Z,3.77
2018-08-16T22:16:03.868Z,3.80
2018-08-16T22:18:32.040Z,3.80
2018-08-16T22:20:59.984Z,3.60
2018-08-16T22:23:27.925Z,3.80
2018-08-16T22:25:56.225Z,3.60
2018-08-16T22:28:24.231Z,4.00
2018-08-16T22:30:52.236Z,3.50
2018-08-16T22:33:20.490Z,3.50
2018-08-16T22:35:48.665Z,3.40
2018-08-16T22:38:16.860Z,3.83
2018-08-16T22:40:45.243Z,4.30
2018-08-16T22:43:13.437Z,4.17
2018-08-16T22:45:41.736Z,3.60
2018-08-16T22:48:09.685Z,4.20
2018-08-16T22:50:37.891Z,3.70
2018-08-16T22:53:06.269Z,3.40
2018-08-16T22:55:34.635Z,3.50
2018-08-16T22:58:02.823Z,3.30
2018-08-16T23:00:31.006Z,3.53
2018-08-16T23:02:59.417Z,3.90
2018-08-16T23:05:27.644Z,3.57
2018-08-16T23:07:55.865Z,3.93
2018-08-16T23:10:24.037Z,4.20
2018-08-16T23:12:52.226Z,3.87
2018-08-16T23:15:20.433Z,3.70
2018-08-16T23:17:48.652Z,3.57
2018-08-16T23:20:16.620Z,3.47
2018-08-16T23:22:44.814Z,3.50
2018-08-16T23:25:13.014Z,4.50
2018-08-16T23:27:41.189Z,3.83
2018-08-16T23:30:10.933Z,3.50
2018-08-16T23:32:39.183Z,3.63
2018-08-16T23:35:07.498Z,3.37
2018-08-16T23:37:35.439Z,3.93
2018-08-16T23:40:03.821Z,3.33
2018-08-16T23:42:31.770Z,3.83
2018-08-16T23:44:59.688Z,4.20
2018-08-16T23:47:27.882Z,3.80
2018-08-16T23:49:56.050Z,4.00
2018-08-16T23:52:24.205Z,4.20
2018-08-16T23:54:52.441Z,4.83
2018-08-16T23:57:20.950Z,3.90
2018-08-16T23:59:49.150Z,4.07
